Time;durP1;ratioP1;P1;durP2;ratioP2;P2;SDS_P1;SDS_P2;PMS_P1;PMS_P2;Temp;Humidity;BMP_temperature;BMP_pressure;BME280_temperature;BME280_humidity;BME280_pressure;Samples;Min_cycle;Max_cycle;Signal;HPM_P1;HPM_P2
2021/11/10 00:00:14;;;;;;;35.58;21.27;;;2.60;98.00;;;;;;6222284;23;20027;-74
2021/11/10 00:02:40;;;;;;;36.22;21.42;;;2.50;98.00;;;;;;6249047;23;20004;-75
2021/11/10 00:05:07;;;;;;;37.47;20.48;;;2.30;98.00;;;;;;6249539;23;20311;-75
2021/11/10 00:07:33;;;;;;;32.25;19.40;;;2.10;98.00;;;;;;6248393;23;20024;-75
2021/11/10 00:09:58;;;;;;;40.45;22.70;;;1.90;98.00;;;;;;6221785;23;20011;-75
2021/11/10 00:12:24;;;;;;;40.38;21.80;;;1.70;98.00;;;;;;6246845;23;20008;-74
2021/11/10 00:14:50;;;;;;;40.00;22.20;;;1.60;98.00;;;;;;6248341;23;20031;-74
2021/11/10 00:17:16;;;;;;;40.90;22.95;;;1.50;98.00;;;;;;6249578;23;20007;-73
2021/11/10 00:19:42;;;;;;;40.70;22.33;;;1.50;97.90;;;;;;6247587;23;20082;-74
2021/11/10 00:22:07;;;;;;;39.05;22.23;;;1.50;97.80;;;;;;6248968;23;20309;-74
2021/11/10 00:24:33;;;;;;;43.47;24.23;;;1.50;97.90;;;;;;6249403;23;20062;-74
2021/11/10 00:26:59;;;;;;;41.88;23.17;;;1.40;97.70;;;;;;6246811;23;20000;-75
2021/11/10 00:29:25;;;;;;;48.92;25.55;;;1.40;97.40;;;;;;6249078;23;20035;-74
2021/11/10 00:31:50;;;;;;;41.53;23.02;;;1.30;97.60;;;;;;6247845;23;20003;-74
2021/11/10 00:34:16;;;;;;;43.38;24.70;;;1.20;97.80;;;;;;6249245;23;20054;-74
2021/11/10 00:36:44;;;;;;;40.38;24.00;;;1.10;97.50;;;;;;6249043;23;20079;-75
2021/11/10 00:39:10;;;;;;;39.95;23.48;;;1.00;97.10;;;;;;6249365;23;20309;-75
2021/11/10 00:41:35;;;;;;;42.78;23.00;;;0.90;97.30;;;;;;6247545;23;20005;-74
2021/11/10 00:44:02;;;;;;;46.00;24.13;;;0.80;96.80;;;;;;6222958;23;20008;-74
2021/11/10 00:46:31;;;;;;;34.58;21.17;;;0.70;97.20;;;;;;6222626;23;20048;-74
2021/11/10 00:48:57;;;;;;;41.35;22.55;;;0.70;96.60;;;;;;6248776;23;20011;-74
2021/11/10 00:51:23;;;;;;;42.10;23.33;;;0.60;96.80;;;;;;6248921;23;20008;-74
2021/11/10 00:53:49;;;;;;;37.90;21.85;;;0.40;97.30;;;;;;6222570;23;20365;-76
2021/11/10 00:56:15;;;;;;;40.83;23.35;;;0.30;96.30;;;;;;6247407;23;20321;-76
2021/11/10 00:58:40;;;;;;;41.03;21.25;;;0.30;96.70;;;;;;6222211;23;20051;-75
2021/11/10 01:01:06;;;;;;;39.58;23.55;;;0.20;96.40;;;;;;6248048;23;20000;-75
2021/11/10 01:03:32;;;;;;;39.30;23.08;;;0.10;96.70;;;;;;6248445;23;20011;-76
2021/11/10 01:05:59;;;;;;;37.90;22.23;;;-0.10;96.70;;;;;;6248686;23;20004;-76
2021/11/10 01:08:25;;;;;;;39.83;21.52;;;-0.20;96.10;;;;;;6221898;23;20008;-75
2021/11/10 01:10:52;;;;;;;42.15;23.20;;;-0.20;95.90;;;;;;6221290;23;20004;-76
2021/11/10 01:13:18;;;;;;;53.55;29.15;;;-0.10;94.70;;;;;;6248769;23;20008;-75
2021/11/10 01:15:45;;;;;;;60.20;28.38;;;0.20;94.50;;;;;;6248274;23;20067;-75
2021/11/10 01:18:11;;;;;;;54.47;28.25;;;0.30;94.60;;;;;;6248664;23;20000;-76
2021/11/10 01:20:37;;;;;;;49.13;25.55;;;0.40;94.20;;;;;;6248314;23;20067;-75
2021/11/10 01:23:03;;;;;;;49.45;25.90;;;0.30;95.10;;;;;;6221778;23;20035;-75
2021/11/10 01:25:28;;;;;;;49.10;25.70;;;0.20;95.60;;;;;;6247266;23;20038;-74
2021/11/10 01:27:54;;;;;;;54.92;28.05;;;0.20;93.60;;;;;;6248473;23;20000;-76
2021/11/10 01:30:21;;;;;;;59.20;29.90;;;0.20;94.10;;;;;;6247972;23;20004;-76
2021/11/10 01:32:48;;;;;;;58.83;29.65;;;0.40;93.20;;;;;;6248434;23;20416;-75
2021/11/10 01:35:14;;;;;;;59.25;28.75;;;0.50;93.10;;;;;;6248702;23;20313;-75
2021/11/10 01:37:40;;;;;;;61.45;28.10;;;0.60;93.60;;;;;;6248329;23;20001;-74
2021/11/10 01:40:07;;;;;;;55.17;28.88;;;0.60;92.90;;;;;;6246434;23;20084;-76
2021/11/10 01:42:36;;;;;;;56.03;29.83;;;0.60;93.00;;;;;;6248309;23;19996;-75
2021/11/10 01:45:01;;;;;;;58.20;30.35;;;0.70;93.30;;;;;;6221143;23;20386;-75
2021/11/10 01:47:27;;;;;;;50.70;28.08;;;0.70;93.20;;;;;;6221555;23;20004;-75
2021/11/10 01:49:53;;;;;;;54.38;27.52;;;0.70;93.10;;;;;;6248822;23;20090;-75
2021/11/10 01:52:19;;;;;;;46.78;25.65;;;0.70;93.50;;;;;;6248761;23;20035;-75
2021/11/10 01:54:45;;;;;;;60.35;28.48;;;0.60;93.70;;;;;;6248973;23;19998;-75
2021/11/10 01:57:12;;;;;;;50.38;26.58;;;0.60;93.30;;;;;;6247249;23;20010;-74
2021/11/10 01:59:44;;;;;;;53.08;26.42;;;0.60;93.00;;;;;;6222176;23;20524;-74
2021/11/10 02:02:20;;;;;;;56.80;26.13;;;0.70;92.80;;;;;;6221573;23;20034;-75
2021/11/10 02:04:47;;;;;;;52.67;27.15;;;0.70;92.60;;;;;;6221747;23;20400;-75
2021/11/10 02:07:13;;;;;;;54.25;27.10;;;0.80;92.90;;;;;;6248070;23;20012;-74
2021/11/10 02:09:39;;;;;;;50.58;25.40;;;0.70;93.20;;;;;;6248098;23;20046;-74
2021/11/10 02:12:05;;;;;;;50.97;26.73;;;0.70;93.30;;;;;;6246472;23;20305;-76
2021/11/10 02:14:31;;;;;;;49.80;26.17;;;0.70;93.30;;;;;;6248046;23;20000;-75
2021/11/10 02:16:57;;;;;;;49.65;25.88;;;0.60;93.80;;;;;;6221618;23;20011;-75
2021/11/10 02:19:24;;;;;;;48.22;24.67;;;0.50;93.40;;;;;;6248519;23;20080;-75
2021/11/10 02:21:53;;;;;;;45.58;23.95;;;0.50;93.50;;;;;;6197087;23;20087;-73
2021/11/10 02:24:21;;;;;;;42.72;23.02;;;0.40;93.90;;;;;;6248131;23;20005;-74
2021/11/10 02:26:47;;;;;;;50.08;25.05;;;0.30;94.00;;;;;;6246998;23;20011;-74
2021/11/10 02:29:19;;;;;;;51.45;25.77;;;0.20;94.20;;;;;;6248067;23;20270;-74
2021/11/10 02:31:45;;;;;;;43.30;23.63;;;0.00;93.90;;;;;;6247496;23;20004;-74
2021/11/10 02:34:11;;;;;;;45.05;24.33;;;0.10;93.00;;;;;;6221425;23;20004;-75
2021/11/10 02:36:37;;;;;;;50.28;25.48;;;0.10;93.40;;;;;;6248074;23;20098;-74
2021/11/10 02:39:18;;;;;;;43.55;24.13;;;0.10;92.40;;;;;;6248506;23;20358;-74
2021/11/10 02:41:46;;;;;;;50.83;26.10;;;0.10;92.40;;;;;;6246933;23;20004;-76
2021/11/10 02:44:16;;;;;;;41.53;23.67;;;0.20;92.20;;;;;;6221561;23;20004;-75
2021/11/10 02:46:43;;;;;;;53.35;25.25;;;0.30;92.30;;;;;;6222003;23;20011;-76
2021/11/10 02:49:09;;;;;;;47.80;25.27;;;0.30;92.10;;;;;;6247840;23;20008;-74
2021/11/10 02:51:35;;;;;;;41.67;23.90;;;0.30;91.80;;;;;;6248443;23;20072;-73
2021/11/10 02:54:01;;;;;;;57.00;25.65;;;0.40;92.40;;;;;;6221238;23;20396;-73
2021/11/10 02:56:27;;;;;;;52.75;25.45;;;0.30;92.70;;;;;;6245807;23;20370;-76
2021/11/10 02:58:52;;;;;;;49.38;25.95;;;0.30;92.20;;;;;;6248055;23;20054;-74
2021/11/10 03:01:18;;;;;;;50.45;26.70;;;0.30;91.40;;;;;;6221427;23;20020;-74
2021/11/10 03:03:44;;;;;;;56.53;27.40;;;0.40;91.30;;;;;;6247861;23;20079;-74
2021/11/10 03:06:10;;;;;;;56.72;27.85;;;0.50;91.50;;;;;;6247814;23;20457;-74
2021/11/10 03:08:38;;;;;;;49.30;25.88;;;0.60;91.90;;;;;;6248430;23;20087;-73
2021/11/10 03:11:04;;;;;;;50.85;26.95;;;0.60;92.20;;;;;;6246416;23;20005;-75
2021/11/10 03:13:30;;;;;;;51.75;27.65;;;0.70;91.50;;;;;;6247753;23;20385;-75
2021/11/10 03:15:59;;;;;;;55.25;28.65;;;0.80;91.90;;;;;;6247100;23;20000;-74
2021/11/10 03:18:25;;;;;;;53.97;27.10;;;0.90;91.70;;;;;;6248086;23;20000;-74
2021/11/10 03:20:50;;;;;;;50.00;26.88;;;1.00;92.60;;;;;;6221454;23;20069;-73
2021/11/10 03:23:16;;;;;;;50.53;27.20;;;1.10;93.20;;;;;;6248060;23;20079;-75
2021/11/10 03:25:42;;;;;;;53.47;27.10;;;1.20;93.50;;;;;;6246258;23;20004;-73
2021/11/10 03:28:07;;;;;;;50.25;28.13;;;1.20;94.40;;;;;;6248179;23;20393;-74
2021/11/10 03:30:33;;;;;;;46.50;25.77;;;1.30;95.00;;;;;;6248146;23;20004;-74
2021/11/10 03:32:59;;;;;;;50.10;26.88;;;1.20;95.40;;;;;;6246953;23;19996;-74
2021/11/10 03:35:25;;;;;;;50.35;26.58;;;1.20;95.40;;;;;;6247872;23;19996;-75
2021/11/10 03:37:51;;;;;;;47.10;26.00;;;1.10;96.20;;;;;;6249238;23;20063;-75
2021/11/10 03:40:17;;;;;;;43.13;23.90;;;1.10;96.20;;;;;;6248174;23;20027;-73
2021/11/10 03:42:43;;;;;;;46.58;26.85;;;1.20;96.10;;;;;;6249465;23;20366;-73
2021/11/10 03:45:10;;;;;;;47.10;25.88;;;1.20;96.80;;;;;;6249551;23;20000;-74
2021/11/10 03:47:37;;;;;;;44.20;24.05;;;1.20;97.20;;;;;;6223237;23;20089;-74
2021/11/10 03:50:04;;;;;;;45.45;25.58;;;1.10;97.20;;;;;;6249766;23;20160;-75
2021/11/10 03:52:30;;;;;;;43.45;25.17;;;1.10;97.30;;;;;;6249952;23;20275;-75
2021/11/10 03:54:55;;;;;;;45.47;25.27;;;1.00;97.40;;;;;;6249665;23;20075;-73
2021/11/10 03:57:21;;;;;;;46.65;25.10;;;0.90;97.20;;;;;;6247442;23;20050;-75
2021/11/10 03:59:47;;;;;;;44.10;23.73;;;0.90;97.10;;;;;;6249806;23;20027;-75
2021/11/10 04:02:13;;;;;;;43.25;24.25;;;0.90;97.10;;;;;;6249651;23;20080;-75
2021/11/10 04:04:38;;;;;;;41.20;23.35;;;0.90;97.00;;;;;;6249231;23;19996;-75
2021/11/10 04:07:05;;;;;;;37.75;21.90;;;0.90;97.00;;;;;;6249221;23;20008;-74
2021/11/10 04:09:30;;;;;;;38.60;22.02;;;0.90;96.50;;;;;;6249599;23;20006;-76
2021/11/10 04:11:56;;;;;;;42.42;23.65;;;0.90;96.60;;;;;;6247979;23;20024;-75
2021/11/10 04:14:22;;;;;;;49.58;25.30;;;0.80;97.00;;;;;;6249637;23;20012;-75
2021/11/10 04:16:47;;;;;;;44.47;22.90;;;0.60;97.40;;;;;;6249119;23;20011;-75
2021/11/10 04:19:13;;;;;;;45.08;24.45;;;0.40;96.60;;;;;;6222927;23;20309;-75
2021/11/10 04:21:39;;;;;;;43.05;22.85;;;0.40;97.00;;;;;;6249491;23;19996;-75
2021/11/10 04:24:05;;;;;;;40.00;21.35;;;0.30;96.90;;;;;;6249056;23;19996;-74
2021/11/10 04:26:35;;;;;;;33.83;18.83;;;0.20;97.10;;;;;;6247632;23;20004;-75
2021/11/10 04:29:01;;;;;;;30.52;18.23;;;0.00;96.60;;;;;;6222914;23;20008;-74
2021/11/10 04:31:27;;;;;;;31.92;16.55;;;0.00;96.40;;;;;;6249319;23;20000;-74
2021/11/10 04:33:54;;;;;;;32.95;17.70;;;0.00;95.70;;;;;;6222359;23;20027;-74
2021/11/10 04:36:21;;;;;;;34.97;19.52;;;0.10;95.50;;;;;;6249081;23;20293;-73
2021/11/10 04:38:47;;;;;;;39.97;20.58;;;0.20;95.50;;;;;;6222388;23;20147;-74
2021/11/10 04:41:15;;;;;;;35.72;18.20;;;0.20;95.60;;;;;;6221193;23;20311;-76
2021/11/10 04:43:41;;;;;;;27.10;16.10;;;0.10;95.50;;;;;;6249150;23;20011;-75
2021/11/10 04:46:17;;;;;;;30.60;15.88;;;0.10;94.70;;;;;;6249197;23;20039;-75
2021/11/10 04:48:44;;;;;;;38.55;19.58;;;0.10;95.50;;;;;;6248398;23;20307;-74
2021/11/10 04:51:14;;;;;;;41.72;20.83;;;0.00;95.30;;;;;;6248762;23;20008;-75
2021/11/10 04:53:45;;;;;;;42.03;22.75;;;0.10;94.90;;;;;;6249150;23;20001;-74
2021/11/10 04:56:11;;;;;;;40.30;20.45;;;0.00;95.00;;;;;;6247880;23;19999;-74
2021/11/10 04:58:38;;;;;;;42.78;21.85;;;0.00;94.70;;;;;;6248769;23;19996;-75
2021/11/10 05:01:28;;;;;;;33.63;19.70;;;0.00;94.70;;;;;;6249144;23;20012;-75
2021/11/10 05:03:54;;;;;;;39.72;20.15;;;0.10;94.30;;;;;;6247880;23;20001;-74
2021/11/10 05:06:21;;;;;;;40.33;20.20;;;0.00;94.30;;;;;;6222067;23;20012;-74
2021/11/10 05:08:47;;;;;;;50.08;22.42;;;0.10;94.20;;;;;;6221926;23;20004;-75
2021/11/10 05:11:14;;;;;;;46.58;20.98;;;0.00;94.50;;;;;;6220434;23;20008;-74
2021/11/10 05:13:40;;;;;;;44.03;21.27;;;-0.10;94.70;;;;;;6222348;23;20008;-74
2021/11/10 05:16:06;;;;;;;43.50;21.73;;;-0.10;94.00;;;;;;6248832;23;20019;-75
2021/11/10 05:18:32;;;;;;;39.50;20.20;;;-0.10;94.10;;;;;;6221929;23;20091;-75
2021/11/10 05:20:58;;;;;;;45.60;21.20;;;-0.10;93.40;;;;;;6248664;23;20279;-74
2021/11/10 05:23:23;;;;;;;32.15;18.35;;;-0.20;94.40;;;;;;6244582;23;20004;-75
2021/11/10 05:25:50;;;;;;;37.13;19.42;;;-0.20;93.90;;;;;;6247669;23;20010;-75
2021/11/10 05:28:16;;;;;;;35.22;17.27;;;-0.10;92.60;;;;;;6248759;23;20008;-75
2021/11/10 05:30:44;;;;;;;34.92;17.10;;;0.00;92.00;;;;;;6221706;23;20121;-73
2021/11/10 05:33:10;;;;;;;32.47;17.45;;;0.20;92.20;;;;;;6246014;23;20027;-75
2021/11/10 05:35:35;;;;;;;33.30;16.08;;;0.20;92.30;;;;;;6236294;22;20000;-74
2021/11/10 05:38:01;;;;;;;30.42;15.93;;;0.50;91.30;;;;;;6247848;22;19996;-75
2021/11/10 05:40:27;;;;;;;31.38;15.80;;;0.60;91.80;;;;;;6220600;23;20007;-75
2021/11/10 05:42:53;;;;;;;31.98;16.30;;;0.70;93.10;;;;;;6246900;22;20000;-75
2021/11/10 05:45:19;;;;;;;26.10;14.23;;;0.60;93.40;;;;;;6247707;22;20004;-74
2021/11/10 05:47:45;;;;;;;30.42;18.27;;;0.70;92.80;;;;;;6247127;22;20031;-73
2021/11/10 05:50:11;;;;;;;38.15;21.30;;;0.80;92.40;;;;;;6220750;23;20012;-74
2021/11/10 05:52:38;;;;;;;38.13;21.23;;;0.90;93.60;;;;;;6246250;22;20084;-75
2021/11/10 05:55:06;;;;;;;38.28;19.52;;;0.90;94.20;;;;;;6218654;22;20000;-74
2021/11/10 05:57:31;;;;;;;39.28;19.55;;;0.80;94.60;;;;;;6193872;23;20087;-75
2021/11/10 05:59:57;;;;;;;33.80;18.02;;;0.70;94.90;;;;;;6246569;22;20085;-75
2021/11/10 06:02:23;;;;;;;52.10;30.27;;;0.70;94.00;;;;;;6246749;22;20010;-75
2021/11/10 06:04:49;;;;;;;44.67;23.92;;;0.80;93.70;;;;;;6247728;22;20000;-74
2021/11/10 06:07:14;;;;;;;32.20;18.42;;;0.70;94.70;;;;;;6215947;23;20254;-74
2021/11/10 06:09:40;;;;;;;29.90;16.52;;;0.60;94.60;;;;;;6216467;23;20079;-75
2021/11/10 06:12:06;;;;;;;36.60;18.58;;;0.60;94.20;;;;;;6216365;23;20004;-74
2021/11/10 06:14:32;;;;;;;37.28;18.63;;;0.60;94.70;;;;;;6218172;23;20007;-76
2021/11/10 06:16:58;;;;;;;43.10;22.15;;;0.60;95.10;;;;;;6216553;23;20664;-74
2021/11/10 06:19:26;;;;;;;40.95;20.42;;;0.50;95.40;;;;;;6218211;23;20001;-74
2021/11/10 06:21:52;;;;;;;35.83;18.00;;;0.50;94.70;;;;;;6216306;23;20001;-75
2021/11/10 06:24:20;;;;;;;39.90;20.83;;;0.50;95.20;;;;;;6217489;23;20027;-74
2021/11/10 06:26:46;;;;;;;35.10;19.30;;;0.50;94.70;;;;;;6216355;23;20008;-75
2021/11/10 06:29:12;;;;;;;36.45;19.02;;;0.60;94.20;;;;;;6217854;23;20000;-74
2021/11/10 06:31:38;;;;;;;27.35;16.02;;;0.60;95.20;;;;;;6218111;23;20027;-74
2021/11/10 06:34:03;;;;;;;28.30;16.20;;;0.60;94.90;;;;;;6217615;23;20000;-75
2021/11/10 06:36:30;;;;;;;29.08;17.08;;;0.60;94.60;;;;;;6216565;23;20011;-74
2021/11/10 06:38:59;;;;;;;24.30;14.57;;;0.70;94.70;;;;;;6217768;23;20011;-74
2021/11/10 06:41:25;;;;;;;25.50;14.07;;;0.70;94.40;;;;;;6216857;23;20076;-74
2021/11/10 06:43:51;;;;;;;34.00;16.42;;;0.70;94.30;;;;;;6217751;23;20005;-76
2021/11/10 06:46:17;;;;;;;29.48;15.05;;;0.70;94.80;;;;;;6217926;23;20103;-76
2021/11/10 06:48:44;;;;;;;25.80;14.48;;;0.70;94.80;;;;;;6217908;23;20004;-75
2021/11/10 06:51:14;;;;;;;27.90;15.95;;;0.70;93.80;;;;;;6216260;23;20011;-76
2021/11/10 06:53:41;;;;;;;28.05;16.33;;;0.80;94.60;;;;;;6217716;23;20001;-75
2021/11/10 06:56:06;;;;;;;32.17;17.42;;;0.80;94.50;;;;;;6214669;23;20011;-75
2021/11/10 06:58:32;;;;;;;36.22;18.38;;;0.70;94.70;;;;;;6217787;23;20314;-76
2021/11/10 07:00:58;;;;;;;33.70;17.60;;;0.70;94.30;;;;;;6216429;23;20005;-76
2021/11/10 07:03:23;;;;;;;31.77;18.00;;;0.70;94.50;;;;;;6216688;23;20011;-75
2021/11/10 07:05:49;;;;;;;31.02;17.67;;;0.70;94.20;;;;;;6220188;23;20000;-75
2021/11/10 07:08:15;;;;;;;26.52;15.82;;;0.80;93.60;;;;;;6221346;23;20127;-75
2021/11/10 07:10:41;;;;;;;33.65;17.52;;;1.00;93.00;;;;;;6219980;23;20374;-76
2021/11/10 07:13:06;;;;;;;32.75;19.13;;;1.10;93.80;;;;;;6221978;22;20008;-76
2021/11/10 07:15:32;;;;;;;31.58;18.55;;;1.10;94.10;;;;;;6250136;22;19996;-74
2021/11/10 07:17:58;;;;;;;37.50;19.40;;;1.20;94.00;;;;;;6223466;23;20297;-76
2021/11/10 07:20:24;;;;;;;27.40;16.40;;;1.30;94.00;;;;;;6249993;23;20007;-75
2021/11/10 07:22:50;;;;;;;28.33;15.40;;;1.40;93.70;;;;;;6250087;22;20000;-76
2021/11/10 07:25:16;;;;;;;29.48;15.10;;;1.40;94.90;;;;;;6221542;22;20380;-75
2021/11/10 07:27:42;;;;;;;28.65;14.57;;;1.40;95.30;;;;;;6223207;23;20032;-76
2021/11/10 07:30:11;;;;;;;27.30;14.82;;;1.50;95.70;;;;;;6250154;23;20034;-74
2021/11/10 07:32:40;;;;;;;26.05;13.98;;;1.60;95.90;;;;;;6248408;22;20000;-74
2021/11/10 07:35:08;;;;;;;27.80;15.45;;;1.70;96.10;;;;;;6249067;22;20050;-75
2021/11/10 07:37:34;;;;;;;25.48;13.32;;;1.90;95.70;;;;;;6223158;23;20007;-76
2021/11/10 07:40:02;;;;;;;23.25;12.85;;;2.10;95.90;;;;;;6248453;22;19996;-76
2021/11/10 07:42:28;;;;;;;24.50;13.27;;;2.20;96.70;;;;;;6249753;22;20011;-76
2021/11/10 07:45:02;;;;;;;21.13;12.40;;;2.30;97.00;;;;;;6249473;22;20004;-73
2021/11/10 07:47:29;;;;;;;27.67;14.30;;;2.40;97.30;;;;;;6249461;22;20058;-77
2021/11/10 07:49:55;;;;;;;24.45;13.57;;;2.60;98.00;;;;;;6249760;22;20005;-75
2021/11/10 07:52:20;;;;;;;34.05;20.20;;;2.60;98.00;;;;;;6249527;23;20026;-75
2021/11/10 07:54:46;;;;;;;35.88;17.40;;;2.70;97.70;;;;;;6221962;23;20262;-76
2021/11/10 07:57:12;;;;;;;23.17;13.55;;;2.70;98.00;;;;;;6247191;22;20047;-76
2021/11/10 07:59:37;;;;;;;25.30;13.57;;;2.80;98.00;;;;;;6247031;22;20007;-75
2021/11/10 08:02:03;;;;;;;24.67;14.70;;;2.90;98.00;;;;;;6247151;22;20004;-74
2021/11/10 08:04:29;;;;;;;27.88;15.90;;;2.90;98.00;;;;;;6246457;22;20031;-76
2021/11/10 08:06:57;;;;;;;27.25;15.10;;;3.10;98.00;;;;;;6214672;23;20480;-76
2021/11/10 08:09:23;;;;;;;30.55;18.73;;;3.20;98.00;;;;;;6216797;23;20103;-75
2021/11/10 08:11:48;;;;;;;47.33;30.33;;;3.30;98.00;;;;;;6214873;23;20535;-78
2021/11/10 08:14:14;;;;;;;44.22;23.85;;;3.20;98.00;;;;;;6214368;23;20016;-76
2021/11/10 08:16:40;;;;;;;33.10;21.17;;;3.40;98.00;;;;;;6214844;23;20012;-74
2021/11/10 08:19:05;;;;;;;24.35;16.05;;;3.60;98.00;;;;;;6215672;23;20012;-75
2021/11/10 08:21:33;;;;;;;25.40;14.05;;;3.70;98.00;;;;;;6216613;23;20278;-76
2021/11/10 08:24:01;;;;;;;19.45;11.45;;;3.70;98.00;;;;;;6215646;23;20001;-77
2021/11/10 08:26:26;;;;;;;18.55;10.65;;;3.90;98.00;;;;;;6214205;23;20400;-74
2021/11/10 08:28:52;;;;;;;18.95;10.60;;;4.00;98.00;;;;;;6216311;23;20084;-75
2021/11/10 08:31:18;;;;;;;18.40;10.35;;;4.10;98.00;;;;;;6218718;23;20366;-76
2021/11/10 08:33:43;;;;;;;42.15;28.95;;;4.30;98.00;;;;;;6217197;23;20450;-75
2021/11/10 08:36:12;;;;;;;36.25;23.73;;;4.30;98.00;;;;;;6216055;23;20084;-75
2021/11/10 08:38:38;;;;;;;26.02;16.98;;;4.50;98.00;;;;;;6216284;23;19989;-75
2021/11/10 08:41:03;;;;;;;28.50;17.48;;;4.70;98.00;;;;;;6217193;23;20000;-76
2021/11/10 08:43:29;;;;;;;26.77;17.00;;;4.80;98.00;;;;;;6218307;23;20028;-74
2021/11/10 08:45:55;;;;;;;18.20;11.70;;;4.70;98.00;;;;;;6218276;23;20375;-74
2021/11/10 08:48:23;;;;;;;27.25;17.75;;;4.70;98.00;;;;;;6217302;23;20164;-76
2021/11/10 08:50:49;;;;;;;20.95;13.73;;;4.90;98.00;;;;;;6218865;23;20024;-76
2021/11/10 08:53:19;;;;;;;13.75;7.95;;;5.00;98.00;;;;;;6217259;23;19997;-76
2021/11/10 08:55:50;;;;;;;14.18;8.23;;;5.10;98.00;;;;;;6215363;23;20079;-74
2021/11/10 08:58:16;;;;;;;13.02;7.47;;;5.40;98.00;;;;;;6219320;23;20000;-76
2021/11/10 09:00:42;;;;;;;15.20;7.95;;;5.50;98.00;;;;;;6219398;23;20267;-76
2021/11/10 09:03:08;;;;;;;12.40;7.07;;;5.50;98.00;;;;;;6219646;23;20000;-76
2021/11/10 09:05:34;;;;;;;16.40;8.30;;;5.60;98.00;;;;;;6219439;23;20007;-74
2021/11/10 09:08:00;;;;;;;48.47;30.63;;;5.70;98.00;;;;;;6249218;23;20036;-74
2021/11/10 09:10:26;;;;;;;41.28;24.95;;;5.80;98.00;;;;;;6248369;23;20012;-75
2021/11/10 09:12:55;;;;;;;31.83;20.15;;;5.80;98.00;;;;;;6249640;23;20035;-74
2021/11/10 09:15:21;;;;;;;44.85;24.23;;;5.90;98.00;;;;;;6249460;23;20061;-76
2021/11/10 09:17:48;;;;;;;49.70;30.00;;;6.00;97.90;;;;;;6249671;23;19997;-74
2021/11/10 09:20:21;;;;;;;48.72;29.38;;;6.10;97.20;;;;;;6249583;23;20000;-77
2021/11/10 09:22:50;;;;;;;67.03;40.90;;;6.30;97.00;;;;;;6249684;23;20004;-74
2021/11/10 09:25:18;;;;;;;63.72;39.13;;;6.40;96.50;;;;;;6221318;23;20051;-74
2021/11/10 09:27:44;;;;;;;46.22;29.45;;;6.50;95.20;;;;;;6249536;23;20259;-75
2021/11/10 09:30:12;;;;;;;42.35;24.80;;;6.30;94.80;;;;;;6249510;23;20050;-74
2021/11/10 09:32:39;;;;;;;37.33;21.55;;;5.90;95.30;;;;;;6249408;23;20000;-74
2021/11/10 09:35:06;;;;;;;31.88;19.95;;;5.60;96.20;;;;;;6248864;23;20024;-74
2021/11/10 09:37:33;;;;;;;33.47;18.17;;;5.40;96.50;;;;;;6222974;23;20004;-76
2021/11/10 09:40:05;;;;;;;27.38;17.13;;;5.20;96.20;;;;;;6221477;23;20004;-76
2021/11/10 09:42:31;;;;;;;30.20;18.40;;;5.20;96.90;;;;;;6249605;23;20000;-76
2021/11/10 09:44:58;;;;;;;27.80;16.02;;;5.20;96.80;;;;;;6249194;23;20058;-76
2021/11/10 09:47:24;;;;;;;28.17;16.70;;;5.40;97.00;;;;;;6222756;23;20087;-75
2021/11/10 09:49:51;;;;;;;24.95;15.77;;;5.60;96.60;;;;;;6249448;23;20027;-76
2021/11/10 09:52:17;;;;;;;26.00;15.43;;;5.90;95.70;;;;;;6249313;23;20134;-76
2021/11/10 09:54:43;;;;;;;28.42;15.35;;;6.00;95.40;;;;;;6249198;23;19992;-75
2021/11/10 09:57:09;;;;;;;25.70;15.57;;;6.30;94.90;;;;;;6247941;23;19996;-76
2021/11/10 09:59:38;;;;;;;27.27;16.75;;;6.40;94.60;;;;;;6249097;23;20439;-76
2021/11/10 10:02:11;;;;;;;25.48;16.10;;;6.60;94.30;;;;;;6222711;23;20004;-76
2021/11/10 10:04:41;;;;;;;28.98;17.33;;;6.80;94.00;;;;;;6248953;23;20030;-75
2021/11/10 10:07:08;;;;;;;27.42;16.80;;;7.10;93.30;;;;;;6249175;23;20011;-75
2021/11/10 10:09:35;;;;;;;34.30;16.92;;;7.10;92.30;;;;;;6222875;23;20027;-75
2021/11/10 10:12:00;;;;;;;30.27;18.92;;;7.20;92.50;;;;;;6247664;23;20266;-74
2021/11/10 10:14:26;;;;;;;32.38;20.58;;;7.20;92.10;;;;;;6248823;23;20014;-75
2021/11/10 10:16:52;;;;;;;27.83;18.42;;;7.40;91.80;;;;;;6249120;23;19999;-74
2021/11/10 10:19:17;;;;;;;28.92;18.67;;;7.50;92.20;;;;;;6222724;23;20000;-74
2021/11/10 10:21:44;;;;;;;37.05;22.98;;;7.70;92.30;;;;;;6249263;23;20032;-74
2021/11/10 10:24:15;;;;;;;33.40;23.95;;;8.20;91.60;;;;;;6222506;23;20011;-75
2021/11/10 10:26:41;;;;;;;32.40;21.90;;;8.50;89.70;;;;;;6247492;23;20027;-75
2021/11/10 10:29:09;;;;;;;36.20;23.73;;;8.90;89.10;;;;;;6248888;23;20008;-74
2021/11/10 10:31:37;;;;;;;28.23;19.30;;;9.60;87.10;;;;;;6222520;23;20030;-75
2021/11/10 10:34:12;;;;;;;28.35;19.13;;;10.20;85.20;;;;;;6249183;23;20079;-75
2021/11/10 10:36:40;;;;;;;35.67;20.70;;;10.70;82.60;;;;;;6222398;23;20000;-74
2021/11/10 10:39:10;;;;;;;27.40;18.13;;;11.00;83.20;;;;;;6222616;23;20000;-75
2021/11/10 10:41:48;;;;;;;31.15;17.88;;;11.00;82.40;;;;;;6220837;23;20008;-75
2021/11/10 10:44:22;;;;;;;28.20;18.25;;;10.60;83.50;;;;;;6248587;23;20012;-75
2021/11/10 10:46:57;;;;;;;26.75;16.20;;;11.10;83.10;;;;;;6223235;23;20000;-75
2021/11/10 10:49:24;;;;;;;;;;;11.30;82.10;;;;;;6251808;23;20000;-74
2021/11/10 10:52:07;;;;;;;24.58;16.17;;;11.10;81.70;;;;;;6224576;23;19900;-75
2021/11/10 10:54:33;;;;;;;24.08;15.07;;;10.80;82.80;;;;;;6250816;23;19996;-74
2021/11/10 10:57:00;;;;;;;25.88;14.50;;;10.20;84.00;;;;;;6249523;23;20008;-76
2021/11/10 10:59:27;;;;;;;22.50;14.55;;;9.90;85.60;;;;;;6250934;23;20000;-75
2021/11/10 11:01:55;;;;;;;23.40;14.18;;;9.70;86.60;;;;;;6251157;23;20400;-75
2021/11/10 11:04:30;;;;;;;22.00;13.88;;;9.70;87.40;;;;;;6251015;23;20000;-75
2021/11/10 11:07:03;;;;;;;23.58;15.38;;;9.80;87.20;;;;;;6250568;23;20282;-76
2021/11/10 11:09:33;;;;;;;24.43;16.03;;;9.40;87.90;;;;;;6250784;23;20004;-76
2021/11/10 11:12:04;;;;;;;26.30;14.77;;;9.50;88.40;;;;;;6222156;23;20032;-76
2021/11/10 11:14:45;;;;;;;23.15;14.13;;;9.70;87.80;;;;;;6250691;23;20008;-75
2021/11/10 11:17:22;;;;;;;25.42;16.40;;;9.90;87.40;;;;;;6251073;23;20000;-75
2021/11/10 11:19:59;;;;;;;26.33;16.23;;;9.80;87.20;;;;;;6250978;23;19996;-74
2021/11/10 11:22:32;;;;;;;28.50;16.75;;;9.60;87.30;;;;;;6250527;22;20231;-75
2021/11/10 11:25:09;;;;;;;27.92;16.88;;;9.20;88.40;;;;;;6249227;23;20003;-73
2021/11/10 11:27:35;;;;;;;28.48;18.45;;;8.80;89.70;;;;;;6223958;23;20011;-75
2021/11/10 11:30:05;;;;;;;24.60;16.48;;;8.50;91.00;;;;;;6224252;23;20000;-76
2021/11/10 11:32:43;;;;;;;26.75;17.35;;;8.60;91.40;;;;;;6250212;23;20075;-75
2021/11/10 11:35:28;;;;;;;24.77;15.52;;;8.60;91.30;;;;;;6250596;23;20000;-76
2021/11/10 11:37:55;;;;;;;25.80;16.33;;;8.90;91.00;;;;;;6250849;23;20378;-75
2021/11/10 11:40:22;;;;;;;24.23;16.13;;;9.20;90.40;;;;;;6248622;23;20003;-74
2021/11/10 11:42:50;;;;;;;24.17;15.80;;;9.30;89.60;;;;;;6250460;23;20004;-76
2021/11/10 11:45:17;;;;;;;27.92;16.77;;;9.40;89.50;;;;;;6223509;23;20011;-75
2021/11/10 11:47:46;;;;;;;28.13;17.10;;;9.40;88.90;;;;;;6224058;23;20015;-75
2021/11/10 11:50:12;;;;;;;25.50;15.25;;;9.50;88.40;;;;;;6223919;23;20058;-76
2021/11/10 11:52:38;;;;;;;25.73;16.95;;;9.60;88.90;;;;;;6250325;23;20072;-75
2021/11/10 11:55:17;;;;;;;25.17;15.00;;;9.60;88.00;;;;;;6248743;23;19992;-75
2021/11/10 11:57:47;;;;;;;24.70;15.55;;;9.50;88.10;;;;;;6250120;23;20020;-76
2021/11/10 12:00:14;;;;;;;28.02;16.33;;;9.60;88.50;;;;;;6250208;23;20350;-76
2021/11/10 12:02:50;;;;;;;26.30;16.60;;;9.80;87.40;;;;;;6250025;23;20266;-76
2021/11/10 12:05:19;;;;;;;24.95;16.52;;;10.00;87.20;;;;;;6222701;23;20019;-76
2021/11/10 12:07:53;;;;;;;27.35;15.48;;;10.30;86.70;;;;;;6222751;23;20435;-75
2021/11/10 12:10:21;;;;;;;23.40;16.23;;;10.40;85.70;;;;;;6248494;23;20008;-75
2021/11/10 12:13:07;;;;;;;24.25;16.25;;;10.30;86.20;;;;;;6249811;23;20036;-75
2021/11/10 12:15:58;;;;;;;26.92;14.25;;;10.30;86.10;;;;;;6221755;23;20278;-76
2021/11/10 12:18:25;;;;;;;25.73;15.73;;;10.80;86.00;;;;;;6222697;23;20004;-75
2021/11/10 12:21:02;;;;;;;21.27;14.82;;;11.80;83.70;;;;;;6248469;23;20004;-74
2021/11/10 12:23:52;;;;;;;23.77;14.60;;;12.70;80.80;;;;;;6222464;23;20038;-74
2021/11/10 12:26:20;;;;;;;23.58;14.35;;;12.80;79.90;;;;;;6247142;23;20008;-73
2021/11/10 12:28:59;;;;;;;20.80;14.25;;;12.80;80.10;;;;;;6247896;23;20373;-74
2021/11/10 12:31:34;;;;;;;21.08;13.70;;;13.10;79.60;;;;;;6222161;23;20058;-74
2021/11/10 12:34:04;;;;;;;20.17;13.48;;;13.40;78.40;;;;;;6248721;23;20012;-73
2021/11/10 12:37:04;;;;;;;20.48;13.85;;;12.80;78.80;;;;;;6222037;23;20007;-76